createdAt,value
2018-11-14T00:00:42.090Z,5.59
2018-11-14T00:01:42.146Z,5.49
2018-11-14T00:02:42.202Z,5.65
2018-11-14T00:03:42.255Z,5.52
2018-11-14T00:04:42.311Z,5.60
2018-11-14T00:05:42.371Z,5.59
2018-11-14T00:06:42.421Z,5.59
2018-11-14T00:07:42.476Z,5.47
2018-11-14T00:08:42.532Z,5.55
2018-11-14T00:09:42.714Z,5.62
2018-11-14T00:10:42.641Z,5.58
2018-11-14T00:11:42.696Z,5.52
2018-11-14T00:12:42.751Z,5.51
2018-11-14T00:13:42.807Z,5.45
2018-11-14T00:14:42.861Z,5.56
2018-11-14T00:15:42.915Z,5.48
2018-11-14T00:16:42.971Z,5.48
2018-11-14T00:17:43.027Z,5.41
2018-11-14T00:18:43.081Z,5.35
2018-11-14T00:19:43.139Z,5.52
2018-11-14T00:20:43.192Z,5.45
2018-11-14T00:21:43.248Z,5.55
2018-11-14T00:22:43.300Z,5.48
2018-11-14T00:23:43.356Z,5.49
2018-11-14T00:24:43.467Z,5.44
2018-11-14T00:25:43.467Z,5.55
2018-11-14T00:26:43.570Z,5.60
2018-11-14T00:27:43.587Z,5.55
2018-11-14T00:28:43.631Z,5.60
2018-11-14T00:29:43.691Z,5.55
2018-11-14T00:30:43.742Z,5.52
2018-11-14T00:31:43.794Z,5.52
2018-11-14T00:32:43.855Z,5.51
2018-11-14T00:33:43.914Z,5.52
2018-11-14T00:34:43.977Z,5.42
2018-11-14T00:35:44.101Z,5.49
2018-11-14T00:36:44.070Z,5.52
2018-11-14T00:37:44.125Z,5.56
2018-11-14T00:38:44.181Z,5.47
2018-11-14T00:39:44.242Z,5.49
2018-11-14T00:40:44.296Z,5.55
2018-11-14T00:41:44.345Z,5.48
2018-11-14T00:42:44.406Z,5.51
2018-11-14T00:43:44.454Z,5.49
2018-11-14T00:44:44.509Z,5.40
2018-11-14T00:45:44.565Z,5.44
2018-11-14T00:46:44.619Z,5.41
2018-11-14T00:47:44.675Z,5.51
2018-11-14T00:48:44.729Z,5.32
2018-11-14T00:49:44.784Z,5.32
2018-11-14T00:50:44.838Z,5.40
2018-11-14T00:51:44.894Z,5.47
2018-11-14T00:52:44.949Z,5.40
2018-11-14T00:53:45.004Z,5.37
2018-11-14T00:54:45.060Z,5.42
2018-11-14T00:55:45.115Z,5.32
2018-11-14T00:56:45.171Z,5.32
2018-11-14T00:57:45.225Z,5.26
2018-11-14T00:58:45.279Z,5.26
2018-11-14T00:59:45.335Z,5.23
2018-11-14T01:00:45.388Z,5.20
2018-11-14T01:01:45.571Z,5.26
2018-11-14T01:02:45.498Z,5.30
2018-11-14T01:03:45.553Z,5.27
2018-11-14T01:04:45.608Z,5.11
2018-11-14T01:05:45.663Z,5.14
2018-11-14T01:06:45.717Z,5.06
2018-11-14T01:07:45.777Z,5.02
2018-11-14T01:08:45.828Z,5.05
2018-11-14T01:09:45.882Z,4.97
2018-11-14T01:10:45.937Z,5.01
2018-11-14T01:11:45.993Z,4.97
2018-11-14T01:12:46.049Z,5.06
2018-11-14T01:13:46.106Z,5.06
2018-11-14T01:14:46.159Z,5.17
2018-11-14T01:15:46.217Z,5.19
2018-11-14T01:16:46.267Z,5.09
2018-11-14T01:17:46.324Z,5.15
2018-11-14T01:18:46.472Z,5.05
2018-11-14T01:19:46.430Z,5.11
2018-11-14T01:20:46.486Z,5.04
2018-11-14T01:21:46.875Z,5.14
2018-11-14T01:22:46.600Z,5.17
2018-11-14T01:23:46.651Z,5.12
2018-11-14T01:24:46.705Z,5.14
2018-11-14T01:25:46.760Z,5.15
2018-11-14T01:26:46.814Z,5.22
2018-11-14T01:27:46.871Z,5.15
2018-11-14T01:28:46.924Z,5.15
2018-11-14T01:29:46.980Z,5.23
2018-11-14T01:30:47.034Z,5.26
2018-11-14T01:31:47.091Z,5.60
2018-11-14T01:32:47.145Z,5.47
2018-11-14T01:33:47.198Z,5.48
2018-11-14T01:34:47.255Z,5.41
2018-11-14T01:35:47.409Z,5.49
2018-11-14T01:36:47.365Z,5.49
2018-11-14T01:37:47.419Z,5.55
2018-11-14T01:38:47.473Z,5.55
2018-11-14T01:39:47.528Z,5.38
2018-11-14T01:40:47.583Z,5.41
2018-11-14T01:41:47.639Z,5.27
2018-11-14T01:42:47.742Z,5.41
2018-11-14T01:43:47.747Z,5.29
2018-11-14T01:44:47.804Z,5.38
2018-11-14T01:45:47.858Z,5.47
2018-11-14T01:46:47.912Z,5.42
2018-11-14T01:47:47.967Z,5.58
2018-11-14T01:48:48.022Z,5.49
2018-11-14T01:49:48.077Z,5.37
2018-11-14T01:50:48.282Z,5.37
2018-11-14T01:51:48.187Z,5.20
2018-11-14T01:52:48.244Z,5.24
2018-11-14T01:53:48.305Z,5.14
2018-11-14T01:54:48.352Z,5.06
2018-11-14T01:55:48.407Z,5.09
2018-11-14T01:56:48.462Z,5.01
2018-11-14T01:57:48.517Z,5.04
2018-11-14T01:58:48.571Z,4.94
2018-11-14T01:59:48.627Z,4.90
2018-11-14T02:00:48.682Z,4.93
2018-11-14T02:01:48.738Z,4.88
2018-11-14T02:02:48.791Z,4.94
2018-11-14T02:03:48.845Z,4.99
2018-11-14T02:04:48.902Z,4.90
2018-11-14T02:05:48.961Z,4.90
2018-11-14T02:06:52.869Z,5.06
2018-11-14T02:07:49.066Z,4.97
2018-11-14T02:08:49.152Z,4.96
2018-11-14T02:09:49.176Z,5.02
2018-11-14T02:10:49.233Z,5.01
2018-11-14T02:11:49.326Z,4.97
2018-11-14T02:12:49.373Z,5.06
2018-11-14T02:13:49.395Z,5.01
2018-11-14T02:14:49.449Z,5.11
2018-11-14T02:15:49.504Z,5.19
2018-11-14T02:16:49.559Z,5.17
2018-11-14T02:17:49.614Z,5.15
2018-11-14T02:18:49.669Z,5.17
2018-11-14T02:19:49.724Z,5.40
2018-11-14T02:20:49.782Z,5.37
2018-11-14T02:21:49.834Z,5.32
2018-11-14T02:22:49.887Z,5.30
2018-11-14T02:23:49.943Z,5.24
2018-11-14T02:24:49.998Z,5.19
2018-11-14T02:25:50.052Z,5.33
2018-11-14T02:26:50.107Z,5.35
2018-11-14T02:27:50.162Z,5.35
2018-11-14T02:28:50.251Z,5.42
2018-11-14T02:29:50.272Z,5.47
2018-11-14T02:30:50.359Z,5.44
2018-11-14T02:31:50.417Z,5.49
2018-11-14T02:32:50.439Z,5.60
2018-11-14T02:33:50.527Z,5.49
2018-11-14T02:34:50.649Z,5.63
2018-11-14T02:35:50.636Z,5.49
2018-11-14T02:36:50.689Z,5.49
2018-11-14T02:37:50.720Z,5.52
2018-11-14T02:38:50.768Z,5.65
2018-11-14T02:39:50.823Z,5.63
2018-11-14T02:40:50.878Z,5.55
2018-11-14T02:41:50.933Z,5.52
2018-11-14T02:42:50.986Z,5.69
2018-11-14T02:43:51.042Z,5.73
2018-11-14T02:44:51.098Z,5.70
2018-11-14T02:45:51.152Z,5.75
2018-11-14T02:46:51.210Z,5.73
2018-11-14T02:47:51.263Z,5.92
2018-11-14T02:48:51.318Z,5.93
2018-11-14T02:49:51.374Z,5.88
2018-11-14T02:50:51.428Z,5.77
2018-11-14T02:51:51.484Z,5.77
2018-11-14T02:52:51.539Z,5.70
2018-11-14T02:53:51.595Z,5.69
2018-11-14T02:54:51.649Z,5.69
2018-11-14T02:55:51.706Z,5.77
2018-11-14T02:56:51.760Z,5.70
2018-11-14T02:57:51.816Z,5.74
2018-11-14T02:58:51.871Z,5.77
2018-11-14T02:59:51.925Z,5.73
2018-11-14T03:00:51.981Z,5.84
2018-11-14T03:01:52.037Z,5.84
2018-11-14T03:02:52.091Z,5.92
2018-11-14T03:03:52.147Z,5.88
2018-11-14T03:04:52.204Z,5.95
2018-11-14T03:05:52.257Z,5.96
2018-11-14T03:06:52.313Z,6.10
2018-11-14T03:07:52.368Z,6.03
2018-11-14T03:08:52.424Z,6.03
2018-11-14T03:09:52.479Z,6.03
2018-11-14T03:10:52.533Z,5.96
2018-11-14T03:11:52.588Z,6.01
2018-11-14T03:12:52.645Z,5.88
2018-11-14T03:13:52.710Z,5.92
2018-11-14T03:14:52.754Z,5.90
2018-11-14T03:15:52.811Z,5.93
2018-11-14T03:16:52.867Z,5.88
2018-11-14T03:17:52.924Z,5.85
2018-11-14T03:18:52.990Z,6.01
2018-11-14T03:19:53.033Z,6.10
2018-11-14T03:20:53.088Z,6.13
2018-11-14T03:21:53.144Z,6.10
2018-11-14T03:22:53.238Z,6.08
2018-11-14T03:23:53.255Z,6.05
2018-11-14T03:24:53.312Z,6.16
2018-11-14T03:25:53.366Z,6.14
2018-11-14T03:26:53.463Z,6.20
2018-11-14T03:27:53.476Z,6.11
2018-11-14T03:28:53.531Z,6.08
2018-11-14T03:29:53.592Z,6.16
2018-11-14T03:30:53.643Z,6.11
2018-11-14T03:31:53.700Z,6.16
2018-11-14T03:32:53.757Z,6.13
2018-11-14T03:33:53.810Z,6.19
2018-11-14T03:34:53.866Z,6.14
2018-11-14T03:35:53.922Z,6.11
2018-11-14T03:36:53.976Z,6.10
2018-11-14T03:37:54.032Z,6.16
2018-11-14T03:38:54.091Z,6.05
2018-11-14T03:39:54.143Z,6.10
2018-11-14T03:40:54.198Z,6.24
2018-11-14T03:41:54.304Z,6.17
2018-11-14T03:42:54.356Z,6.21
2018-11-14T03:43:54.365Z,6.30
2018-11-14T03:44:54.422Z,6.20
2018-11-14T03:45:54.477Z,6.20
2018-11-14T03:46:54.531Z,6.21
2018-11-14T03:47:54.590Z,6.16
2018-11-14T03:48:54.643Z,6.20
2018-11-14T03:49:54.697Z,6.24
2018-11-14T03:50:54.753Z,6.24
2018-11-14T03:51:54.808Z,6.28
2018-11-14T03:52:54.864Z,6.21
2018-11-14T03:53:54.920Z,6.25
2018-11-14T03:54:54.976Z,6.21
2018-11-14T03:55:55.030Z,6.30
2018-11-14T03:56:55.087Z,6.17
2018-11-14T03:57:55.141Z,6.21
2018-11-14T03:58:55.198Z,6.21
2018-11-14T03:59:55.254Z,6.27
2018-11-14T04:00:55.309Z,6.30
2018-11-14T04:01:55.368Z,6.27
2018-11-14T04:02:55.419Z,6.36
2018-11-14T04:03:55.473Z,6.36
2018-11-14T04:04:55.531Z,6.32
2018-11-14T04:05:55.588Z,6.42
2018-11-14T04:06:55.640Z,6.36
2018-11-14T04:07:55.697Z,6.38
2018-11-14T04:08:55.752Z,6.50
2018-11-14T04:09:55.809Z,6.43
2018-11-14T04:10:55.863Z,6.43
2018-11-14T04:11:55.919Z,6.51
2018-11-14T04:12:55.974Z,6.40
2018-11-14T04:13:56.032Z,6.58
2018-11-14T04:14:56.084Z,6.55
2018-11-14T04:15:56.141Z,6.71
2018-11-14T04:16:56.197Z,6.75
2018-11-14T04:17:56.253Z,6.64
2018-11-14T04:18:56.307Z,6.69
2018-11-14T04:19:56.364Z,6.63
2018-11-14T04:20:56.423Z,6.71
2018-11-14T04:21:56.475Z,6.72
2018-11-14T04:22:56.530Z,6.71
2018-11-14T04:23:56.597Z,6.69
2018-11-14T04:24:56.641Z,6.71
2018-11-14T04:25:56.697Z,6.78
2018-11-14T04:26:56.752Z,6.75
2018-11-14T04:27:56.819Z,6.72
2018-11-14T04:28:56.864Z,6.82
2018-11-14T04:29:56.920Z,6.69
2018-11-14T04:30:56.975Z,6.65
2018-11-14T04:31:57.030Z,6.69
2018-11-14T04:32:57.087Z,6.69
2018-11-14T04:33:57.145Z,6.75
2018-11-14T04:34:57.203Z,6.68
2018-11-14T04:35:57.253Z,6.68
2018-11-14T04:36:57.310Z,6.71
2018-11-14T04:37:57.365Z,6.71
2018-11-14T04:38:57.421Z,6.71
2018-11-14T04:39:57.479Z,6.72
2018-11-14T04:40:57.534Z,6.72
2018-11-14T04:41:57.590Z,6.71
2018-11-14T04:42:57.646Z,6.78
2018-11-14T04:43:57.700Z,6.83
2018-11-14T04:44:57.759Z,6.76
2018-11-14T04:45:57.813Z,6.81
2018-11-14T04:46:57.869Z,6.89
2018-11-14T04:47:58.000Z,6.87
2018-11-14T04:48:57.980Z,6.87
2018-11-14T04:49:58.035Z,6.93
2018-11-14T04:50:58.092Z,6.97
2018-11-14T04:51:58.147Z,6.97
2018-11-14T04:52:58.228Z,6.96
2018-11-14T04:53:58.274Z,6.97
2018-11-14T04:54:58.356Z,6.91
2018-11-14T04:55:58.370Z,6.83
2018-11-14T04:56:58.427Z,6.96
2018-11-14T04:57:58.576Z,6.90
2018-11-14T04:58:58.851Z,6.89
2018-11-14T04:59:58.704Z,6.90
2018-11-14T05:00:58.681Z,6.90
2018-11-14T05:01:58.711Z,6.89
2018-11-14T05:02:59.710Z,6.94
2018-11-14T05:03:59.290Z,6.97
2018-11-14T05:04:59.511Z,6.99
2018-11-14T05:05:59.548Z,7.07
2018-11-14T05:06:59.096Z,7.07
2018-11-14T05:07:59.875Z,7.00
2018-11-14T05:08:59.448Z,7.11
2018-11-14T05:09:59.181Z,7.08
2018-11-14T05:10:59.294Z,7.14
2018-11-14T05:11:59.267Z,7.07
2018-11-14T05:12:59.953Z,7.07
2018-11-14T05:13:59.391Z,7.08
2018-11-14T05:14:59.485Z,7.08
2018-11-14T05:15:59.490Z,7.21
2018-11-14T05:16:59.546Z,7.24
2018-11-14T05:17:59.602Z,7.16
2018-11-14T05:18:59.697Z,7.19
2018-11-14T05:19:59.715Z,7.19
2018-11-14T05:20:59.821Z,7.23
2018-11-14T05:22:00.225Z,7.12
2018-11-14T05:22:59.904Z,7.16
2018-11-14T05:24:00.328Z,7.16
2018-11-14T05:25:00.051Z,7.09
2018-11-14T05:26:00.146Z,7.15
2018-11-14T05:27:00.155Z,7.16
2018-11-14T05:28:00.180Z,7.07
2018-11-14T05:29:00.219Z,7.09
2018-11-14T05:30:00.276Z,7.15
2018-11-14T05:31:00.330Z,7.21
2018-11-14T05:32:00.470Z,7.16
2018-11-14T05:33:00.442Z,7.19
2018-11-14T05:34:00.499Z,7.15
2018-11-14T05:35:00.554Z,7.24
2018-11-14T05:36:00.611Z,7.27
2018-11-14T05:37:00.670Z,7.19
2018-11-14T05:38:00.724Z,7.19
2018-11-14T05:39:00.779Z,7.24
2018-11-14T05:40:00.884Z,7.29
2018-11-14T05:41:00.890Z,7.30
2018-11-14T05:42:00.947Z,7.30
2018-11-14T05:43:01.002Z,7.34
2018-11-14T05:44:01.394Z,7.33
2018-11-14T05:45:01.127Z,7.34
2018-11-14T05:46:01.172Z,7.30
2018-11-14T05:47:01.227Z,7.33
2018-11-14T05:48:01.288Z,7.39
2018-11-14T05:49:01.339Z,7.33
2018-11-14T05:50:01.396Z,7.41
2018-11-14T05:51:01.451Z,7.41
2018-11-14T05:52:01.507Z,7.44
2018-11-14T05:53:01.565Z,7.39
2018-11-14T05:54:01.620Z,7.39
2018-11-14T05:55:01.871Z,7.32
2018-11-14T05:56:01.732Z,7.42
2018-11-14T05:57:01.821Z,7.29
2018-11-14T05:58:01.881Z,7.39
2018-11-14T05:59:01.938Z,7.50
2018-11-14T06:00:01.989Z,7.55
2018-11-14T06:01:02.013Z,7.51
2018-11-14T06:02:02.071Z,7.51
2018-11-14T06:03:02.125Z,7.55
2018-11-14T06:04:02.183Z,7.52
2018-11-14T06:05:02.642Z,7.48
2018-11-14T06:06:02.297Z,7.57
2018-11-14T06:07:02.423Z,7.58
2018-11-14T06:08:02.444Z,7.58
2018-11-14T06:09:02.840Z,7.58
2018-11-14T06:10:02.960Z,7.58
2018-11-14T06:11:02.628Z,7.60
2018-11-14T06:12:02.755Z,7.62
2018-11-14T06:13:02.769Z,7.58
2018-11-14T06:14:02.855Z,7.66
2018-11-14T06:15:02.868Z,7.58
2018-11-14T06:16:03.665Z,7.55
2018-11-14T06:17:03.702Z,7.57
2018-11-14T06:18:03.023Z,7.52
2018-11-14T06:19:03.538Z,7.48
2018-11-14T06:20:03.725Z,7.58
2018-11-14T06:21:03.609Z,7.55
2018-11-14T06:22:03.352Z,7.52
2018-11-14T06:23:03.292Z,7.60
2018-11-14T06:24:03.346Z,7.63
2018-11-14T06:25:03.459Z,7.60
2018-11-14T06:26:03.521Z,7.67
2018-11-14T06:27:03.524Z,7.63
2018-11-14T06:28:03.577Z,7.69
2018-11-14T06:29:03.627Z,7.70
2018-11-14T06:30:03.691Z,7.73
2018-11-14T06:31:03.738Z,7.66
2018-11-14T06:32:03.799Z,7.79
2018-11-14T06:33:03.852Z,7.79
2018-11-14T06:34:03.916Z,7.82
2018-11-14T06:35:03.978Z,7.81
2018-11-14T06:36:04.085Z,7.77
2018-11-14T06:37:04.082Z,7.84
2018-11-14T06:38:04.130Z,7.82
2018-11-14T06:39:04.204Z,7.84
2018-11-14T06:40:04.262Z,7.82
2018-11-14T06:41:04.674Z,7.86
2018-11-14T06:42:04.362Z,7.71
2018-11-14T06:43:04.435Z,7.85
2018-11-14T06:44:05.212Z,7.84
2018-11-14T06:45:04.973Z,7.81
2018-11-14T06:46:05.221Z,7.85
2018-11-14T06:47:04.649Z,7.85
2018-11-14T06:48:04.776Z,7.82
2018-11-14T06:49:05.156Z,7.89
2018-11-14T06:50:04.842Z,7.91
2018-11-14T06:51:05.015Z,7.94
2018-11-14T06:52:05.930Z,7.86
2018-11-14T06:53:05.246Z,7.91
2018-11-14T06:54:05.375Z,7.94
2018-11-14T06:55:05.091Z,7.91
2018-11-14T06:56:05.549Z,7.88
2018-11-14T06:58:05.849Z,7.85
2018-11-14T06:59:05.875Z,7.82
2018-11-14T07:00:05.459Z,7.85
2018-11-14T07:01:06.200Z,7.82
2018-11-14T07:02:06.036Z,7.94
2018-11-14T07:03:05.513Z,7.94
2018-11-14T07:04:05.570Z,7.91
2018-11-14T07:05:05.707Z,7.94
2018-11-14T07:06:05.808Z,7.96
2018-11-14T07:07:05.792Z,7.99
2018-11-14T07:08:05.830Z,7.95
2018-11-14T07:09:05.891Z,8.02
2018-11-14T07:10:05.945Z,7.99
2018-11-14T07:11:06.077Z,8.06
2018-11-14T07:12:06.070Z,8.02
2018-11-14T07:13:06.114Z,8.06
2018-11-14T07:14:06.136Z,8.02
2018-11-14T07:15:06.191Z,8.03
2018-11-14T07:16:06.250Z,8.06
2018-11-14T07:17:06.305Z,8.09
2018-11-14T07:18:06.428Z,8.06
2018-11-14T07:19:06.419Z,8.12
2018-11-14T07:20:06.475Z,8.04
2018-11-14T07:21:07.191Z,8.04
2018-11-14T07:22:07.021Z,8.04
2018-11-14T07:23:06.652Z,8.06
2018-11-14T07:24:07.301Z,8.06
2018-11-14T07:25:07.399Z,8.09
2018-11-14T07:26:06.821Z,8.14
2018-11-14T07:27:06.873Z,8.10
2018-11-14T07:28:06.934Z,8.12
2018-11-14T07:29:06.987Z,8.21
2018-11-14T07:30:07.044Z,8.20
2018-11-14T07:31:07.119Z,8.13
2018-11-14T07:32:07.170Z,8.20
2018-11-14T07:33:07.265Z,8.24
2018-11-14T07:34:07.273Z,8.20
2018-11-14T07:35:07.328Z,8.18
2018-11-14T07:36:07.386Z,8.20
2018-11-14T07:37:07.444Z,8.22
2018-11-14T07:38:07.500Z,8.24
2018-11-14T07:39:07.559Z,8.29
2018-11-14T07:40:07.613Z,8.24
2018-11-14T07:41:07.670Z,8.32
2018-11-14T07:42:07.729Z,8.29
2018-11-14T07:43:07.784Z,8.39
2018-11-14T07:44:07.841Z,8.29
2018-11-14T07:45:07.899Z,8.29
2018-11-14T07:46:07.957Z,8.34
2018-11-14T07:47:08.013Z,8.40
2018-11-14T07:48:08.103Z,8.36
2018-11-14T07:49:08.268Z,8.40
2018-11-14T07:50:08.235Z,8.36
2018-11-14T07:51:08.241Z,8.40
2018-11-14T07:52:08.299Z,8.29
2018-11-14T07:53:08.357Z,8.28
2018-11-14T07:54:08.413Z,8.32
2018-11-14T07:55:08.470Z,8.24
2018-11-14T07:56:08.527Z,8.21
2018-11-14T07:57:08.585Z,8.27
2018-11-14T07:58:08.641Z,8.32
2018-11-14T07:59:08.698Z,8.40
2018-11-14T08:00:08.755Z,8.43
2018-11-14T08:01:08.816Z,8.46
2018-11-14T08:02:08.885Z,8.37
2018-11-14T08:03:08.928Z,8.40
2018-11-14T08:04:09.019Z,8.32
2018-11-14T08:05:09.041Z,8.32
2018-11-14T08:06:09.099Z,8.29
2018-11-14T08:07:09.156Z,8.29
2018-11-14T08:08:09.268Z,8.31
2018-11-14T08:09:09.272Z,8.34
2018-11-14T08:10:09.364Z,8.28
2018-11-14T08:11:09.385Z,8.32
2018-11-14T08:12:09.442Z,8.28
2018-11-14T08:13:09.501Z,8.24
2018-11-14T08:14:09.557Z,8.29
2018-11-14T08:15:09.613Z,8.29
2018-11-14T08:16:09.670Z,8.29
2018-11-14T08:17:09.756Z,8.31
2018-11-14T08:18:09.820Z,8.34
2018-11-14T08:19:09.864Z,8.28
2018-11-14T08:20:09.898Z,8.32
2018-11-14T08:21:09.958Z,8.32
2018-11-14T08:22:10.047Z,8.34
2018-11-14T08:23:10.069Z,8.39
2018-11-14T08:24:10.126Z,8.32
2018-11-14T08:25:10.926Z,8.40
2018-11-14T08:26:10.241Z,8.29
2018-11-14T08:27:10.298Z,8.34
2018-11-14T08:28:10.355Z,8.29
2018-11-14T08:29:10.411Z,8.43
2018-11-14T08:30:10.471Z,8.39
2018-11-14T08:31:10.527Z,8.50
2018-11-14T08:32:10.584Z,8.64
2018-11-14T08:33:10.641Z,8.58
2018-11-14T08:34:10.698Z,8.68
2018-11-14T08:35:10.807Z,8.68
2018-11-14T08:36:10.848Z,8.73
2018-11-14T08:37:10.869Z,8.71
2018-11-14T08:38:10.931Z,8.75
2018-11-14T08:39:11.079Z,8.73
2018-11-14T08:40:11.040Z,8.75
2018-11-14T08:41:11.132Z,8.54
2018-11-14T08:42:11.246Z,8.50
2018-11-14T08:43:11.243Z,8.50
2018-11-14T08:44:11.296Z,8.58
2018-11-14T08:45:11.329Z,8.64
2018-11-14T08:46:11.385Z,8.67
2018-11-14T08:47:11.444Z,8.63
2018-11-14T08:48:11.499Z,8.63
2018-11-14T08:49:11.556Z,8.68
2018-11-14T08:50:11.627Z,8.68
2018-11-14T08:51:11.670Z,8.70
2018-11-14T08:52:11.729Z,8.80
2018-11-14T08:53:11.787Z,8.76
2018-11-14T08:54:11.843Z,8.76
2018-11-14T08:55:11.920Z,8.82
2018-11-14T08:56:11.958Z,8.94
2018-11-14T08:57:12.016Z,8.94
2018-11-14T08:58:12.073Z,9.00
2018-11-14T08:59:12.130Z,8.85
2018-11-14T09:00:12.187Z,8.91
2018-11-14T09:01:12.245Z,8.82
2018-11-14T09:02:12.303Z,8.80
2018-11-14T09:03:12.361Z,8.71
2018-11-14T09:04:12.534Z,8.70
2018-11-14T09:05:12.475Z,8.67
2018-11-14T09:06:12.619Z,8.68
2018-11-14T09:07:12.592Z,8.76
2018-11-14T09:08:12.670Z,8.76
2018-11-14T09:09:12.706Z,8.82
2018-11-14T09:10:12.764Z,8.91
2018-11-14T09:11:12.933Z,8.88
2018-11-14T09:12:12.975Z,8.79
2018-11-14T09:13:13.066Z,8.88
2018-11-14T09:14:13.048Z,8.75
2018-11-14T09:15:13.111Z,8.80
2018-11-14T09:16:13.110Z,8.76
2018-11-14T09:17:13.174Z,8.78
2018-11-14T09:18:13.263Z,8.89
2018-11-14T09:19:13.283Z,8.76
2018-11-14T09:20:13.345Z,8.78
2018-11-14T09:21:13.404Z,8.91
2018-11-14T09:22:13.459Z,8.82
2018-11-14T09:23:13.514Z,8.83
2018-11-14T09:24:13.595Z,8.91
2018-11-14T09:25:13.645Z,8.94
2018-11-14T09:26:13.688Z,8.89
2018-11-14T09:27:13.803Z,8.71
2018-11-14T09:28:13.810Z,8.85
2018-11-14T09:29:13.863Z,8.71
2018-11-14T09:30:13.922Z,8.70
2018-11-14T09:31:13.976Z,8.58
2018-11-14T09:32:14.044Z,8.65
2018-11-14T09:33:14.191Z,8.68
2018-11-14T09:34:14.154Z,8.67
2018-11-14T09:35:14.207Z,8.78
2018-11-14T09:36:14.284Z,8.75
2018-11-14T09:37:14.323Z,8.75
2018-11-14T09:38:14.403Z,8.75
2018-11-14T09:39:14.437Z,8.79
2018-11-14T09:40:14.529Z,8.82
2018-11-14T09:41:14.631Z,8.91
2018-11-14T09:42:14.619Z,8.85
2018-11-14T09:43:14.668Z,8.93
2018-11-14T09:44:14.726Z,8.93
2018-11-14T09:45:14.784Z,8.89
2018-11-14T09:46:14.841Z,8.88
2018-11-14T09:47:14.904Z,8.85
2018-11-14T09:48:15.628Z,8.89
2018-11-14T09:49:15.033Z,9.03
2018-11-14T09:50:15.072Z,9.01
2018-11-14T09:51:15.129Z,9.19
2018-11-14T09:52:15.189Z,9.17
2018-11-14T09:53:15.261Z,9.24
2018-11-14T09:54:15.303Z,9.34
2018-11-14T09:55:15.360Z,9.34
2018-11-14T09:56:15.425Z,9.41
2018-11-14T09:57:15.476Z,9.41
2018-11-14T09:58:15.535Z,9.37
2018-11-14T09:59:15.592Z,9.31
2018-11-14T10:00:15.678Z,9.22
2018-11-14T10:01:15.710Z,9.26
2018-11-14T10:02:15.765Z,9.30
2018-11-14T10:03:15.825Z,9.22
2018-11-14T10:04:15.917Z,9.26
2018-11-14T10:05:15.939Z,9.27
2018-11-14T10:06:16.005Z,9.34
2018-11-14T10:07:16.054Z,9.20
2018-11-14T10:08:16.113Z,9.30
2018-11-14T10:09:16.174Z,9.22
2018-11-14T10:10:16.229Z,9.38
2018-11-14T10:11:16.287Z,9.42
2018-11-14T10:12:16.345Z,9.37
2018-11-14T10:13:16.404Z,9.37
2018-11-14T10:14:16.461Z,9.37
2018-11-14T10:15:16.518Z,9.38
2018-11-14T10:16:17.075Z,9.38
2018-11-14T10:17:16.635Z,9.35
2018-11-14T10:18:16.695Z,9.50
2018-11-14T10:19:16.751Z,9.62
2018-11-14T10:20:16.809Z,9.75
2018-11-14T10:21:16.968Z,9.65
2018-11-14T10:22:16.926Z,9.67
2018-11-14T10:23:16.986Z,9.53
2018-11-14T10:24:17.048Z,9.40
2018-11-14T10:25:17.101Z,9.38
2018-11-14T10:26:17.212Z,9.31
2018-11-14T10:27:17.216Z,9.30
2018-11-14T10:28:17.275Z,9.32
2018-11-14T10:29:17.334Z,9.31
2018-11-14T10:30:17.420Z,9.32
2018-11-14T10:31:17.458Z,9.32
2018-11-14T10:32:17.510Z,9.27
2018-11-14T10:33:17.568Z,9.19
2018-11-14T10:34:17.627Z,9.17
2018-11-14T10:35:18.402Z,9.20
2018-11-14T10:36:17.746Z,9.26
2018-11-14T10:37:17.801Z,9.27
2018-11-14T10:38:17.862Z,9.30
2018-11-14T10:39:17.916Z,9.37
2018-11-14T10:40:17.976Z,9.37
2018-11-14T10:41:18.034Z,9.42
2018-11-14T10:42:18.090Z,9.37
2018-11-14T10:43:18.149Z,9.31
2018-11-14T10:44:18.208Z,9.30
2018-11-14T10:45:18.266Z,9.31
2018-11-14T10:46:18.324Z,9.20
2018-11-14T10:47:18.383Z,9.40
2018-11-14T10:48:18.440Z,9.56
2018-11-14T10:49:18.498Z,9.65
2018-11-14T10:50:18.558Z,9.71
2018-11-14T10:51:18.615Z,9.63
2018-11-14T10:52:18.673Z,9.77
2018-11-14T10:53:18.732Z,9.73
2018-11-14T10:54:18.790Z,9.71
2018-11-14T10:55:18.847Z,9.75
2018-11-14T10:56:18.906Z,9.70
2018-11-14T10:57:18.965Z,9.83
2018-11-14T10:58:19.053Z,9.73
2018-11-14T10:59:19.082Z,9.73
2018-11-14T11:00:19.143Z,9.71
2018-11-14T11:01:19.198Z,9.88
2018-11-14T11:02:19.256Z,9.92
2018-11-14T11:03:19.314Z,9.95
2018-11-14T11:04:19.373Z,10.01
2018-11-14T11:05:19.431Z,10.06
2018-11-14T11:06:19.492Z,10.13
2018-11-14T11:07:19.547Z,9.83
2018-11-14T11:08:19.673Z,9.99
2018-11-14T11:09:19.665Z,10.06
2018-11-14T11:10:19.723Z,10.06
2018-11-14T11:11:19.783Z,9.98
2018-11-14T11:12:20.415Z,10.01
2018-11-14T11:13:19.902Z,9.98
2018-11-14T11:14:19.957Z,9.98
2018-11-14T11:15:20.017Z,10.01
2018-11-14T11:16:20.077Z,9.95
2018-11-14T11:17:20.132Z,9.98
2018-11-14T11:18:20.192Z,9.95
2018-11-14T11:19:20.252Z,10.04
2018-11-14T11:20:20.306Z,10.13
2018-11-14T11:21:20.367Z,10.11
2018-11-14T11:22:20.425Z,10.36
2018-11-14T11:23:20.488Z,10.62
2018-11-14T11:24:20.574Z,10.76
2018-11-14T11:25:20.638Z,10.95
2018-11-14T11:26:22.067Z,11.06
2018-11-14T11:27:21.248Z,11.12
2018-11-14T11:28:20.780Z,11.20
2018-11-14T11:29:20.838Z,11.41
2018-11-14T11:30:20.898Z,11.53
2018-11-14T11:31:20.988Z,11.62
2018-11-14T11:32:21.014Z,11.57
2018-11-14T11:33:21.111Z,11.69
2018-11-14T11:34:21.165Z,11.63
2018-11-14T11:35:21.225Z,11.16
2018-11-14T11:36:21.250Z,11.06
2018-11-14T11:37:21.310Z,10.90
2018-11-14T11:38:21.451Z,10.81
2018-11-14T11:39:21.428Z,10.73
2018-11-14T11:40:21.488Z,10.70
2018-11-14T11:41:21.548Z,10.72
2018-11-14T11:42:21.607Z,10.81
2018-11-14T11:43:21.667Z,10.99
2018-11-14T11:44:21.754Z,11.28
2018-11-14T11:45:21.787Z,11.62
2018-11-14T11:46:21.845Z,11.69
2018-11-14T11:47:21.903Z,11.59
2018-11-14T11:48:21.962Z,11.57
2018-11-14T11:49:22.022Z,11.57
2018-11-14T11:50:22.083Z,11.48
2018-11-14T11:51:22.143Z,11.46
2018-11-14T11:52:22.201Z,11.60
2018-11-14T11:53:22.260Z,11.46
2018-11-14T11:54:22.320Z,11.48
2018-11-14T11:55:22.380Z,11.59
2018-11-14T11:56:22.438Z,11.78
2018-11-14T11:57:22.516Z,12.05
2018-11-14T11:58:22.561Z,12.79
2018-11-14T11:59:22.675Z,13.54
2018-11-14T12:00:22.781Z,13.16
2018-11-14T12:01:22.738Z,12.55
2018-11-14T12:02:22.865Z,12.48
2018-11-14T12:03:22.856Z,14.42
2018-11-14T12:04:22.915Z,15.38
2018-11-14T12:05:23.182Z,16.17
2018-11-14T12:06:23.186Z,15.95
2018-11-14T12:07:23.100Z,16.27
2018-11-14T12:08:23.154Z,16.73
2018-11-14T12:09:23.249Z,15.30
2018-11-14T12:10:23.320Z,15.37
2018-11-14T12:11:23.337Z,16.50
2018-11-14T12:12:23.418Z,16.81
2018-11-14T12:13:23.520Z,16.62
2018-11-14T12:14:23.519Z,15.89
2018-11-14T12:15:23.583Z,15.35
2018-11-14T12:16:23.694Z,13.88
2018-11-14T12:17:24.098Z,13.22
2018-11-14T12:18:23.805Z,13.55
2018-11-14T12:19:24.242Z,13.73
2018-11-14T12:20:24.071Z,14.42
2018-11-14T12:21:23.950Z,13.46
2018-11-14T12:22:24.011Z,13.62
2018-11-14T12:23:24.091Z,13.83
2018-11-14T12:24:24.132Z,14.01
2018-11-14T12:25:24.194Z,14.19
2018-11-14T12:26:24.258Z,13.98
2018-11-14T12:27:24.389Z,15.09
2018-11-14T12:28:24.378Z,15.70
2018-11-14T12:29:24.441Z,15.28
2018-11-14T12:30:24.530Z,15.20
2018-11-14T12:31:24.561Z,14.80
2018-11-14T12:32:24.624Z,15.18
2018-11-14T12:33:24.685Z,15.11
2018-11-14T12:34:24.811Z,14.95
2018-11-14T12:35:24.845Z,14.74
2018-11-14T12:36:24.868Z,15.12
2018-11-14T12:37:24.928Z,15.34
2018-11-14T12:38:24.993Z,14.49
2018-11-14T12:39:25.065Z,14.82
2018-11-14T12:40:25.118Z,15.03
2018-11-14T12:41:25.179Z,15.34
2018-11-14T12:42:25.237Z,15.84
2018-11-14T12:43:25.297Z,15.68
2018-11-14T12:44:25.363Z,15.38
2018-11-14T12:45:25.420Z,16.50
2018-11-14T12:46:25.483Z,15.46
2018-11-14T12:47:25.546Z,15.35
2018-11-14T12:48:25.608Z,16.25
2018-11-14T12:49:25.666Z,16.03
2018-11-14T12:50:25.729Z,15.56
2018-11-14T12:51:25.789Z,15.76
2018-11-14T12:52:25.893Z,14.90
2018-11-14T12:53:25.913Z,14.66
2018-11-14T12:54:25.975Z,14.48
2018-11-14T12:55:26.036Z,14.48
2018-11-14T12:56:26.097Z,14.46
2018-11-14T12:57:26.159Z,14.61
2018-11-14T12:58:26.221Z,14.42
2018-11-14T12:59:26.394Z,14.41
2018-11-14T13:00:26.345Z,14.61
2018-11-14T13:01:26.406Z,14.64
2018-11-14T13:02:26.471Z,15.11
2018-11-14T13:03:26.530Z,15.16
2018-11-14T13:04:26.590Z,15.38
2018-11-14T13:05:26.652Z,15.62
2018-11-14T13:06:26.715Z,15.37
2018-11-14T13:07:26.775Z,15.27
2018-11-14T13:08:26.837Z,15.16
2018-11-14T13:09:26.898Z,14.98
2018-11-14T13:10:26.961Z,14.31
2018-11-14T13:11:27.022Z,14.60
2018-11-14T13:12:27.637Z,14.79
2018-11-14T13:13:27.145Z,14.82
2018-11-14T13:14:27.207Z,14.80
2018-11-14T13:15:27.267Z,14.74
2018-11-14T13:16:27.330Z,14.35